createdAt,value
2017-08-27T00:01:14.761Z,98586.30
2017-08-27T00:03:44.243Z,98579.91
2017-08-27T00:06:13.716Z,98586.71
2017-08-27T00:08:43.165Z,98584.50
2017-08-27T00:11:12.609Z,98583.43
2017-08-27T00:13:42.057Z,98570.75
2017-08-27T00:16:11.510Z,98572.45
2017-08-27T00:18:40.960Z,98574.70
2017-08-27T00:21:10.417Z,98572.75
2017-08-27T00:23:39.868Z,98581.69
2017-08-27T00:26:09.321Z,98583.34
2017-08-27T00:28:38.771Z,98586.06
2017-08-27T00:31:08.269Z,98593.33
2017-08-27T00:33:37.701Z,98596.02
2017-08-27T00:36:07.145Z,98593.92
2017-08-27T00:38:36.603Z,98596.38
2017-08-27T00:41:06.051Z,98600.31
2017-08-27T00:43:35.506Z,98596.58
2017-08-27T00:46:04.689Z,98598.36
2017-08-27T00:48:33.942Z,98599.27
2017-08-27T00:51:03.416Z,98602.02
2017-08-27T00:53:32.853Z,98606.58
2017-08-27T00:56:02.311Z,98607.89
2017-08-27T00:58:31.784Z,98613.59
2017-08-27T01:01:01.325Z,98616.24
2017-08-27T01:03:30.569Z,98613.55
2017-08-27T01:05:59.521Z,98615.38
2017-08-27T01:08:28.982Z,98613.53
2017-08-27T01:10:58.473Z,98611.94
2017-08-27T01:13:27.891Z,98613.23
2017-08-27T01:15:57.326Z,98607.86
2017-08-27T01:18:26.600Z,98611.63
2017-08-27T01:20:56.035Z,98610.23
2017-08-27T01:23:25.140Z,98613.03
2017-08-27T01:25:54.713Z,98610.53
2017-08-27T01:28:24.172Z,98609.68
2017-08-27T01:30:53.613Z,98607.72
2017-08-27T01:33:22.872Z,98604.38
2017-08-27T01:35:52.312Z,98606.48
2017-08-27T01:38:21.816Z,98607.08
2017-08-27T01:40:51.273Z,98609.50
2017-08-27T01:43:20.735Z,98606.03
2017-08-27T01:45:50.176Z,98607.06
2017-08-27T01:48:19.640Z,98606.34
2017-08-27T01:50:49.078Z,98592.09
2017-08-27T01:53:18.524Z,98593.91
2017-08-27T01:55:47.988Z,98597.14
2017-08-27T01:58:17.456Z,98593.86
2017-08-27T02:00:46.898Z,98597.27
2017-08-27T02:03:16.363Z,98594.77
2017-08-27T02:05:45.823Z,98597.95
2017-08-27T02:08:14.907Z,98606.46
2017-08-27T02:10:44.361Z,98610.17
2017-08-27T02:13:13.829Z,98605.66
2017-08-27T02:15:43.277Z,98616.80
2017-08-27T02:18:12.728Z,98615.41
2017-08-27T02:20:42.178Z,98619.72
2017-08-27T02:23:11.631Z,98614.06
2017-08-27T02:25:41.086Z,98621.37
2017-08-27T02:28:10.562Z,98616.24
2017-08-27T02:30:39.999Z,98616.92
2017-08-27T02:33:09.507Z,98620.11
2017-08-27T02:35:38.946Z,98621.97
2017-08-27T02:38:08.400Z,98620.48
2017-08-27T02:40:37.874Z,98616.98
2017-08-27T02:43:07.308Z,98615.94
2017-08-27T02:45:36.746Z,98620.20
2017-08-27T02:48:06.196Z,98620.12
2017-08-27T02:50:35.633Z,98628.73
2017-08-27T02:53:05.094Z,98624.97
2017-08-27T02:55:34.551Z,98618.66
2017-08-27T02:58:04.001Z,98624.81
2017-08-27T03:00:33.449Z,98622.11
2017-08-27T03:03:02.896Z,98629.76
2017-08-27T03:05:32.347Z,98635.98
2017-08-27T03:08:01.791Z,98636.58
2017-08-27T03:10:31.496Z,98636.30
2017-08-27T03:13:00.953Z,98631.81
2017-08-27T03:15:30.401Z,98629.14
2017-08-27T03:17:59.865Z,98626.19
2017-08-27T03:20:29.308Z,98627.45
2017-08-27T03:22:58.444Z,98633.48
2017-08-27T03:25:27.896Z,98628.18
2017-08-27T03:27:57.350Z,98626.41
2017-08-27T03:30:26.868Z,98633.52
2017-08-27T03:32:56.318Z,98633.94
2017-08-27T03:35:25.759Z,98629.72
2017-08-27T03:37:55.226Z,98634.61
2017-08-27T03:40:24.735Z,98641.04
2017-08-27T03:42:54.176Z,98639.41
2017-08-27T03:45:23.656Z,98638.45
2017-08-27T03:47:53.271Z,98643.49
2017-08-27T03:50:22.751Z,98644.58
2017-08-27T03:52:52.168Z,98640.77
2017-08-27T03:55:21.783Z,98646.21
2017-08-27T03:57:51.247Z,98642.67
2017-08-27T04:00:20.731Z,98649.03
2017-08-27T04:02:50.003Z,98646.72
2017-08-27T04:05:19.466Z,98650.39
2017-08-27T04:07:48.934Z,98657.05
2017-08-27T04:10:18.429Z,98656.20
2017-08-27T04:12:47.893Z,98660.92
2017-08-27T04:15:17.466Z,98661.02
2017-08-27T04:17:46.928Z,98659.79
2017-08-27T04:20:16.421Z,98669.41
2017-08-27T04:22:45.876Z,98676.35
2017-08-27T04:25:15.411Z,98669.00
2017-08-27T04:27:44.846Z,98675.50
2017-08-27T04:30:14.443Z,98672.64
2017-08-27T04:32:43.892Z,98671.79
2017-08-27T04:35:13.389Z,98677.36
2017-08-27T04:37:42.828Z,98679.91
2017-08-27T04:40:12.301Z,98679.88
2017-08-27T04:42:41.766Z,98679.45
2017-08-27T04:45:11.516Z,98685.95
2017-08-27T04:47:40.981Z,98688.63
2017-08-27T04:50:10.456Z,98691.89
2017-08-27T04:52:39.910Z,98687.09
2017-08-27T04:55:09.410Z,98701.11
2017-08-27T04:57:38.836Z,98699.84
2017-08-27T05:00:08.333Z,98701.44
2017-08-27T05:02:37.614Z,98694.05
2017-08-27T05:05:07.112Z,98701.77
2017-08-27T05:07:36.557Z,98700.19
2017-08-27T05:10:06.125Z,98703.39
2017-08-27T05:12:35.586Z,98700.67
2017-08-27T05:15:05.067Z,98699.84
2017-08-27T05:17:34.497Z,98704.77
2017-08-27T05:20:03.831Z,98703.11
2017-08-27T05:22:33.268Z,98707.99
2017-08-27T05:25:02.761Z,98702.79
2017-08-27T05:27:32.207Z,98700.29
2017-08-27T05:30:01.696Z,98703.75
2017-08-27T05:32:31.381Z,98702.75
2017-08-27T05:35:00.843Z,98709.25
2017-08-27T05:37:30.129Z,98705.70
2017-08-27T05:39:59.561Z,98704.93
2017-08-27T05:42:29.019Z,98716.78
2017-08-27T05:44:58.466Z,98709.03
2017-08-27T05:47:27.987Z,98714.70
2017-08-27T05:49:57.408Z,98708.09
2017-08-27T05:52:26.852Z,98702.05
2017-08-27T05:54:56.312Z,98703.51
2017-08-27T05:57:25.744Z,98708.69
2017-08-27T05:59:55.197Z,98706.56
2017-08-27T06:02:24.658Z,98709.91
2017-08-27T06:04:54.168Z,98704.50
2017-08-27T06:07:23.630Z,98713.02
2017-08-27T06:09:53.070Z,98721.42
2017-08-27T06:12:22.516Z,98716.77
2017-08-27T06:14:51.977Z,98717.57
2017-08-27T06:17:21.425Z,98718.40
2017-08-27T06:19:50.993Z,98720.73
2017-08-27T06:22:20.449Z,98716.74
2017-08-27T06:24:49.916Z,98717.58
2017-08-27T06:27:19.192Z,98714.65
2017-08-27T06:29:48.641Z,98720.58
2017-08-27T06:32:18.089Z,98714.81
2017-08-27T06:34:47.550Z,98721.02
2017-08-27T06:37:17.003Z,98716.69
2017-08-27T06:39:46.464Z,98724.41
2017-08-27T06:42:15.924Z,98726.72
2017-08-27T06:44:45.364Z,98729.22
2017-08-27T06:47:14.828Z,98724.36
2017-08-27T06:49:44.300Z,98723.09
2017-08-27T06:52:13.753Z,98715.80
2017-08-27T06:54:43.217Z,98717.59
2017-08-27T06:57:12.699Z,98719.66
2017-08-27T06:59:42.157Z,98721.22
2017-08-27T07:02:11.615Z,98726.86
2017-08-27T07:04:40.916Z,98728.59
2017-08-27T07:07:10.369Z,98732.03
2017-08-27T07:09:39.664Z,98727.43
2017-08-27T07:12:09.186Z,98726.70
2017-08-27T07:14:38.647Z,98729.45
2017-08-27T07:17:08.104Z,98731.30
2017-08-27T07:19:37.553Z,98727.74
2017-08-27T07:22:07.046Z,98725.36
2017-08-27T07:24:36.597Z,98722.48
2017-08-27T07:27:06.076Z,98725.83
2017-08-27T07:29:35.529Z,98724.91
2017-08-27T07:32:04.983Z,98727.58
2017-08-27T07:34:34.464Z,98734.14
2017-08-27T07:37:03.924Z,98735.35
2017-08-27T07:39:33.369Z,98736.89
2017-08-27T07:42:02.903Z,98737.55
2017-08-27T07:44:32.412Z,98745.44
2017-08-27T07:47:02.120Z,98740.38
2017-08-27T07:49:31.564Z,98740.66
2017-08-27T07:52:01.058Z,98749.88
2017-08-27T07:54:30.511Z,98748.11
2017-08-27T07:56:59.969Z,98745.91
2017-08-27T07:59:29.424Z,98745.38
2017-08-27T08:01:59.863Z,98748.66
2017-08-27T08:04:29.292Z,98745.57
2017-08-27T08:06:58.838Z,98749.72
2017-08-27T08:09:28.283Z,98744.09
2017-08-27T08:11:57.821Z,98742.92
2017-08-27T08:14:28.008Z,98738.17
2017-08-27T08:16:57.646Z,98739.09
2017-08-27T08:19:27.272Z,98731.97
2017-08-27T08:21:56.917Z,98739.97
2017-08-27T08:24:26.635Z,98737.07
2017-08-27T08:27:00.408Z,98730.17
2017-08-27T08:29:37.708Z,98735.37
2017-08-27T08:32:08.873Z,98730.22
2017-08-27T08:34:44.510Z,98728.66
2017-08-27T08:37:18.822Z,98729.54
2017-08-27T08:39:53.249Z,98732.62
2017-08-27T08:42:29.454Z,98731.08
2017-08-27T08:45:03.582Z,98727.77
2017-08-27T08:47:39.556Z,98722.91
2017-08-27T08:50:13.494Z,98721.88
2017-08-27T08:52:45.011Z,98713.37
2017-08-27T08:55:22.196Z,98720.14
2017-08-27T08:57:58.494Z,98715.23
2017-08-27T09:00:35.333Z,98717.00
2017-08-27T09:03:09.218Z,98714.09
2017-08-27T09:05:39.210Z,98711.55
2017-08-27T09:08:08.657Z,98704.20
2017-08-27T09:10:38.113Z,98711.00
2017-08-27T09:13:07.598Z,98701.61
2017-08-27T09:15:37.058Z,98709.19
2017-08-27T09:18:06.501Z,98715.67
2017-08-27T09:20:35.944Z,98713.73
2017-08-27T09:23:05.398Z,98702.06
2017-08-27T09:25:35.059Z,98711.72
2017-08-27T09:28:04.477Z,98702.41
2017-08-27T09:30:33.961Z,98701.55
2017-08-27T09:33:03.433Z,98698.13
2017-08-27T09:35:32.983Z,98691.70
2017-08-27T09:38:02.485Z,98697.01
2017-08-27T09:40:35.851Z,98684.38
2017-08-27T09:43:08.680Z,98682.25
2017-08-27T09:45:41.822Z,98687.06
2017-08-27T09:48:11.538Z,98683.13
2017-08-27T09:50:40.992Z,98687.21
2017-08-27T09:53:10.440Z,98678.20
2017-08-27T09:55:39.877Z,98689.95
2017-08-27T09:58:09.422Z,98692.86
2017-08-27T10:00:44.214Z,98691.87
2017-08-27T10:03:17.127Z,98685.04
2017-08-27T10:05:51.272Z,98686.42
2017-08-27T10:08:27.905Z,98696.10
2017-08-27T10:11:01.508Z,98685.85
2017-08-27T10:13:32.165Z,98688.32
2017-08-27T10:16:04.839Z,98683.59
2017-08-27T10:18:38.596Z,98688.80
2017-08-27T10:21:11.301Z,98685.94
2017-08-27T10:23:46.920Z,98679.11
2017-08-27T10:26:24.447Z,98679.97
2017-08-27T10:28:56.546Z,98686.73
2017-08-27T10:31:29.867Z,98680.91
2017-08-27T10:33:59.363Z,98675.67
2017-08-27T10:36:33.072Z,98682.42
2017-08-27T10:39:05.743Z,98678.92
2017-08-27T10:41:38.823Z,98683.63
2017-08-27T10:44:13.427Z,98690.45
2017-08-27T10:46:51.639Z,98689.13
2017-08-27T10:49:24.977Z,98683.31
2017-08-27T10:51:59.283Z,98679.72
2017-08-27T10:54:34.733Z,98684.12
2017-08-27T10:57:08.327Z,98691.02
2017-08-27T10:59:43.968Z,98684.01
2017-08-27T11:02:20.377Z,98684.50
2017-08-27T11:04:57.153Z,98676.80
2017-08-27T11:07:32.995Z,98673.45
2017-08-27T11:10:06.934Z,98666.72
2017-08-27T11:12:43.128Z,98676.36
2017-08-27T11:15:17.795Z,98671.55
2017-08-27T11:17:52.543Z,98671.52
2017-08-27T11:20:23.468Z,98666.45
2017-08-27T11:22:55.728Z,98676.31
2017-08-27T11:25:30.090Z,98676.60
2017-08-27T11:28:02.925Z,98662.58
2017-08-27T11:30:37.968Z,98664.19
2017-08-27T11:33:13.105Z,98664.67
2017-08-27T11:35:45.963Z,98658.32
2017-08-27T11:38:20.777Z,98660.02
2017-08-27T11:40:53.050Z,98654.31
2017-08-27T11:43:29.061Z,98649.91
2017-08-27T11:46:06.409Z,98654.66
2017-08-27T11:48:40.820Z,98652.63
2017-08-27T11:51:10.298Z,98640.64
2017-08-27T11:53:44.239Z,98643.24
2017-08-27T11:56:20.444Z,98647.27
2017-08-27T11:58:54.140Z,98649.45
2017-08-27T12:01:30.427Z,98639.70
2017-08-27T12:04:03.674Z,98641.41
2017-08-27T12:06:34.095Z,98637.83
2017-08-27T12:09:10.287Z,98640.02
2017-08-27T12:11:40.028Z,98641.22
2017-08-27T12:14:10.661Z,98631.33
2017-08-27T12:16:40.269Z,98631.59
2017-08-27T12:19:09.719Z,98624.48
2017-08-27T12:21:39.312Z,98625.40
2017-08-27T12:24:08.757Z,98631.89
2017-08-27T16:13:00.533Z,98610.23
2017-08-27T16:15:29.778Z,98603.30
2017-08-27T16:17:59.239Z,98598.63
2017-08-27T16:20:28.701Z,98602.38
2017-08-27T16:22:57.966Z,98596.05
2017-08-27T16:25:27.221Z,98591.41
2017-08-27T16:27:56.478Z,98601.31
2017-08-27T16:30:25.722Z,98609.77
2017-08-27T16:32:55.037Z,98609.50
2017-08-27T16:35:24.544Z,98613.81
2017-08-27T16:37:53.825Z,98614.74
2017-08-27T16:40:23.070Z,98613.86
